Pansey, Alabama
Current Conditions -  °F | °C
As of 7:53 PM on Sunday 21 Dec 2014 (Local Time) from KDHN Reporting Station
Haze Haze  
Wind Chill: 52°   Ceiling: 300
Heat Index: 52°   Visibility: 5mi
Dew Point: 51°   Wind: 8mph
Humidity: 97%   Direction: 110°ESE
Pressure: 30.06"   Gusts: NA
Location:  31.15°N, 85.18°W
Report Text: KDHN 220153Z AUTO 11007KT 5SM BR OVC003 11/11 A3006 RMK AO2 SLP177 T01110106
Loading
Personal Weather Stations






























Interactive Weather Map New forecast layout! Learn more

10-Day Weather Forecast

Advertisements
Track Severe Weather on mobile